sensor_id;sensor_type;location;lat;lon;timestamp;pressure;altitude;pressure_sealevel;temperature;humidity
62333;BME280;48624;49.812;8.562;2022-11-14T00:00:27;100688.31;;;4.18;100.00
62333;BME280;48624;49.812;8.562;2022-11-14T00:02:53;100687.44;;;4.18;100.00
62333;BME280;48624;49.812;8.562;2022-11-14T00:05:19;100688.28;;;4.42;100.00
62333;BME280;48624;49.812;8.562;2022-11-14T00:07:45;100679.88;;;4.10;100.00
62333;BME280;48624;49.812;8.562;2022-11-14T00:10:14;100676.56;;;4.28;100.00
62333;BME280;48624;49.812;8.562;2022-11-14T00:12:40;100674.44;;;4.38;100.00
62333;BME280;48624;49.812;8.562;2022-11-14T00:15:06;100678.53;;;4.46;100.00
62333;BME280;48624;49.812;8.562;2022-11-14T00:17:32;100691.47;;;4.50;100.00
62333;BME280;48624;49.812;8.562;2022-11-14T00:19:57;100687.63;;;4.37;100.00
62333;BME280;48624;49.812;8.562;2022-11-14T00:22:22;100693.91;;;4.55;100.00
62333;BME280;48624;49.812;8.562;2022-11-14T00:24:48;100690.13;;;4.40;100.00
62333;BME280;48624;49.812;8.562;2022-11-14T00:27:13;100683.34;;;4.34;100.00
62333;BME280;48624;49.812;8.562;2022-11-14T00:29:39;100680.94;;;4.52;100.00
62333;BME280;48624;49.812;8.562;2022-11-14T00:32:05;100679.63;;;4.40;100.00
62333;BME280;48624;49.812;8.562;2022-11-14T00:34:30;100681.72;;;4.54;100.00
62333;BME280;48624;49.812;8.562;2022-11-14T00:36:55;100674.78;;;4.29;100.00
62333;BME280;48624;49.812;8.562;2022-11-14T00:39:21;100672.63;;;4.16;100.00
62333;BME280;48624;49.812;8.562;2022-11-14T00:41:46;100669.41;;;4.10;100.00
62333;BME280;48624;49.812;8.562;2022-11-14T00:44:11;100666.34;;;4.21;100.00
62333;BME280;48624;49.812;8.562;2022-11-14T00:46:36;100669.50;;;4.30;100.00
62333;BME280;48624;49.812;8.562;2022-11-14T00:49:03;100667.03;;;4.26;100.00
62333;BME280;48624;49.812;8.562;2022-11-14T00:51:28;100653.25;;;4.43;100.00
62333;BME280;48624;49.812;8.562;2022-11-14T00:53:53;100657.06;;;4.58;100.00
62333;BME280;48624;49.812;8.562;2022-11-14T00:56:19;100651.44;;;4.45;100.00
62333;BME280;48624;49.812;8.562;2022-11-14T00:58:45;100652.25;;;4.47;100.00
62333;BME280;48624;49.812;8.562;2022-11-14T01:01:11;100652.25;;;4.47;100.00
62333;BME280;48624;49.812;8.562;2022-11-14T01:03:36;100663.59;;;4.70;100.00
62333;BME280;48624;49.812;8.562;2022-11-14T01:06:06;100655.69;;;4.25;100.00
62333;BME280;48624;49.812;8.562;2022-11-14T01:08:33;100645.44;;;4.64;100.00
62333;BME280;48624;49.812;8.562;2022-11-14T01:10:59;100649.88;;;4.63;100.00
62333;BME280;48624;49.812;8.562;2022-11-14T01:13:25;100643.00;;;4.59;100.00
62333;BME280;48624;49.812;8.562;2022-11-14T01:15:51;100649.13;;;4.37;100.00
62333;BME280;48624;49.812;8.562;2022-11-14T01:18:19;100650.06;;;4.58;100.00
62333;BME280;48624;49.812;8.562;2022-11-14T01:20:46;100644.44;;;4.68;100.00
62333;BME280;48624;49.812;8.562;2022-11-14T01:23:14;100640.53;;;4.78;100.00
62333;BME280;48624;49.812;8.562;2022-11-14T01:25:40;100640.19;;;4.86;100.00
62333;BME280;48624;49.812;8.562;2022-11-14T01:28:07;100633.75;;;4.72;100.00
62333;BME280;48624;49.812;8.562;2022-11-14T01:30:34;100630.38;;;4.91;100.00
62333;BME280;48624;49.812;8.562;2022-11-14T01:33:00;100628.09;;;4.61;100.00
62333;BME280;48624;49.812;8.562;2022-11-14T01:35:25;100624.81;;;4.54;100.00
62333;BME280;48624;49.812;8.562;2022-11-14T01:37:51;100619.75;;;4.72;100.00
62333;BME280;48624;49.812;8.562;2022-11-14T01:40:16;100615.72;;;4.85;100.00
62333;BME280;48624;49.812;8.562;2022-11-14T01:42:41;100611.06;;;4.92;100.00
62333;BME280;48624;49.812;8.562;2022-11-14T01:50:54;100589.69;;;5.02;100.00
62333;BME280;48624;49.812;8.562;2022-11-14T01:53:20;100583.88;;;5.35;100.00
62333;BME280;48624;49.812;8.562;2022-11-14T01:55:45;100582.25;;;4.91;100.00
62333;BME280;48624;49.812;8.562;2022-11-14T01:58:11;100580.63;;;5.09;100.00
62333;BME280;48624;49.812;8.562;2022-11-14T02:00:37;100583.22;;;4.88;100.00
62333;BME280;48624;49.812;8.562;2022-11-14T02:03:03;100582.72;;;4.80;100.00
62333;BME280;48624;49.812;8.562;2022-11-14T02:05:28;100581.91;;;4.78;100.00
62333;BME280;48624;49.812;8.562;2022-11-14T02:07:54;100574.75;;;4.81;100.00
62333;BME280;48624;49.812;8.562;2022-11-14T02:10:20;100571.22;;;4.82;100.00
62333;BME280;48624;49.812;8.562;2022-11-14T02:12:46;100566.69;;;4.86;100.00
62333;BME280;48624;49.812;8.562;2022-11-14T02:15:12;100564.94;;;4.86;100.00
62333;BME280;48624;49.812;8.562;2022-11-14T02:17:39;100552.13;;;4.99;100.00
62333;BME280;48624;49.812;8.562;2022-11-14T02:22:30;100563.84;;;4.70;100.00
62333;BME280;48624;49.812;8.562;2022-11-14T02:24:55;100571.88;;;4.67;100.00
62333;BME280;48624;49.812;8.562;2022-11-14T02:27:20;100563.84;;;4.70;100.00
62333;BME280;48624;49.812;8.562;2022-11-14T02:29:46;100561.72;;;4.80;100.00
62333;BME280;48624;49.812;8.562;2022-11-14T02:32:11;100572.91;;;4.63;100.00
62333;BME280;48624;49.812;8.562;2022-11-14T02:34:37;100564.63;;;4.72;100.00
62333;BME280;48624;49.812;8.562;2022-11-14T02:37:02;100560.06;;;4.77;100.00
62333;BME280;48624;49.812;8.562;2022-11-14T02:39:28;100548.50;;;4.81;100.00
62333;BME280;48624;49.812;8.562;2022-11-14T02:41:53;100543.41;;;4.78;100.00
62333;BME280;48624;49.812;8.562;2022-11-14T02:44:18;100543.59;;;4.74;100.00
62333;BME280;48624;49.812;8.562;2022-11-14T02:46:45;100532.59;;;4.64;100.00
62333;BME280;48624;49.812;8.562;2022-11-14T02:49:10;100540.44;;;4.65;100.00
62333;BME280;48624;49.812;8.562;2022-11-14T02:51:36;100536.88;;;4.87;100.00
62333;BME280;48624;49.812;8.562;2022-11-14T02:54:01;100534.66;;;4.57;100.00
62333;BME280;48624;49.812;8.562;2022-11-14T02:56:26;100535.03;;;4.68;100.00
62333;BME280;48624;49.812;8.562;2022-11-14T02:58:52;100528.47;;;4.58;100.00
62333;BME280;48624;49.812;8.562;2022-11-14T03:01:17;100533.09;;;4.74;100.00
62333;BME280;48624;49.812;8.562;2022-11-14T03:03:42;100518.06;;;4.77;100.00
62333;BME280;48624;49.812;8.562;2022-11-14T03:06:07;100512.28;;;4.69;100.00
62333;BME280;48624;49.812;8.562;2022-11-14T03:08:33;100517.41;;;4.72;100.00
62333;BME280;48624;49.812;8.562;2022-11-14T03:11:06;100505.53;;;4.63;100.00
62333;BME280;48624;49.812;8.562;2022-11-14T03:13:32;100499.81;;;4.53;100.00
62333;BME280;48624;49.812;8.562;2022-11-14T03:16:06;100506.13;;;4.27;100.00
62333;BME280;48624;49.812;8.562;2022-11-14T03:18:32;100510.13;;;4.36;100.00
62333;BME280;48624;49.812;8.562;2022-11-14T03:21:10;100518.16;;;4.53;100.00
62333;BME280;48624;49.812;8.562;2022-11-14T03:23:36;100503.44;;;4.71;100.00
62333;BME280;48624;49.812;8.562;2022-11-14T03:26:04;100506.31;;;4.65;100.00
62333;BME280;48624;49.812;8.562;2022-11-14T03:28:31;100499.75;;;4.12;100.00
62333;BME280;48624;49.812;8.562;2022-11-14T03:30:57;100491.50;;;3.99;100.00
62333;BME280;48624;49.812;8.562;2022-11-14T03:33:22;100486.63;;;4.34;100.00
62333;BME280;48624;49.812;8.562;2022-11-14T03:35:49;100502.38;;;4.12;100.00
62333;BME280;48624;49.812;8.562;2022-11-14T03:38:15;100492.78;;;4.33;100.00
62333;BME280;48624;49.812;8.562;2022-11-14T03:40:41;100491.88;;;4.34;100.00
62333;BME280;48624;49.812;8.562;2022-11-14T03:43:06;100502.75;;;4.46;100.00
62333;BME280;48624;49.812;8.562;2022-11-14T03:45:31;100515.72;;;4.28;100.00
62333;BME280;48624;49.812;8.562;2022-11-14T03:47:57;100516.59;;;4.49;100.00
62333;BME280;48624;49.812;8.562;2022-11-14T03:50:22;100512.31;;;4.26;100.00
62333;BME280;48624;49.812;8.562;2022-11-14T03:52:48;100509.50;;;4.30;100.00
62333;BME280;48624;49.812;8.562;2022-11-14T03:55:14;100512.31;;;4.26;100.00
62333;BME280;48624;49.812;8.562;2022-11-14T03:57:39;100505.53;;;4.42;100.00
62333;BME280;48624;49.812;8.562;2022-11-14T04:00:05;100507.47;;;4.37;100.00
62333;BME280;48624;49.812;8.562;2022-11-14T04:02:30;100509.50;;;4.30;100.00
62333;BME280;48624;49.812;8.562;2022-11-14T04:04:55;100505.16;;;4.29;100.00
62333;BME280;48624;49.812;8.562;2022-11-14T04:07:21;100507.47;;;4.37;100.00
62333;BME280;48624;49.812;8.562;2022-11-14T04:09:46;100490.63;;;4.43;100.00
62333;BME280;48624;49.812;8.562;2022-11-14T04:12:11;100478.41;;;4.21;100.00
62333;BME280;48624;49.812;8.562;2022-11-14T04:14:37;100473.47;;;4.13;100.00
62333;BME280;48624;49.812;8.562;2022-11-14T04:17:02;100473.94;;;4.23;100.00
62333;BME280;48624;49.812;8.562;2022-11-14T04:19:27;100483.16;;;4.11;100.00
62333;BME280;48624;49.812;8.562;2022-11-14T04:21:52;100488.38;;;4.11;100.00
62333;BME280;48624;49.812;8.562;2022-11-14T04:24:18;100486.44;;;4.16;100.00
62333;BME280;48624;49.812;8.562;2022-11-14T04:26:43;100479.97;;;4.03;100.00
62333;BME280;48624;49.812;8.562;2022-11-14T04:29:08;100479.22;;;4.22;100.00
62333;BME280;48624;49.812;8.562;2022-11-14T04:31:34;100476.66;;;3.99;100.00
62333;BME280;48624;49.812;8.562;2022-11-14T04:33:59;100473.78;;;4.26;100.00
62333;BME280;48624;49.812;8.562;2022-11-14T04:36:24;100476.66;;;3.99;100.00
62333;BME280;48624;49.812;8.562;2022-11-14T04:38:49;100473.59;;;4.31;100.00
62333;BME280;48624;49.812;8.562;2022-11-14T04:41:15;100475.81;;;4.20;100.00
62333;BME280;48624;49.812;8.562;2022-11-14T04:43:40;100477.63;;;4.40;100.00
62333;BME280;48624;49.812;8.562;2022-11-14T04:46:05;100478.59;;;4.37;100.00
62333;BME280;48624;49.812;8.562;2022-11-14T04:48:31;100473.31;;;4.39;100.00
62333;BME280;48624;49.812;8.562;2022-11-14T04:50:56;100466.22;;;4.41;100.00
62333;BME280;48624;49.812;8.562;2022-11-14T04:53:21;100474.16;;;4.39;100.00
62333;BME280;48624;49.812;8.562;2022-11-14T04:55:47;100476.09;;;4.56;100.00
62333;BME280;48624;49.812;8.562;2022-11-14T04:58:12;100468.31;;;4.53;100.00
62333;BME280;48624;49.812;8.562;2022-11-14T05:00:37;100473.06;;;4.66;100.00
62333;BME280;48624;49.812;8.562;2022-11-14T05:03:03;100474.63;;;4.70;100.00
62333;BME280;48624;49.812;8.562;2022-11-14T05:05:28;100477.84;;;4.77;100.00
62333;BME280;48624;49.812;8.562;2022-11-14T05:07:53;100478.31;;;4.86;100.00
62333;BME280;48624;49.812;8.562;2022-11-14T05:10:19;100474.75;;;4.88;100.00
62333;BME280;48624;49.812;8.562;2022-11-14T05:12:44;100477.31;;;4.89;100.00
62333;BME280;48624;49.812;8.562;2022-11-14T05:15:10;100480.94;;;5.06;100.00
62333;BME280;48624;49.812;8.562;2022-11-14T05:17:35;100472.91;;;4.90;100.00
62333;BME280;48624;49.812;8.562;2022-11-14T05:20:00;100471.47;;;5.03;100.00
62333;BME280;48624;49.812;8.562;2022-11-14T05:22:26;100461.50;;;4.70;100.00
62333;BME280;48624;49.812;8.562;2022-11-14T05:24:51;100472.28;;;4.84;100.00
62333;BME280;48624;49.812;8.562;2022-11-14T05:27:16;100473.06;;;5.06;100.00
62333;BME280;48624;49.812;8.562;2022-11-14T05:29:42;100471.53;;;5.02;100.00
62333;BME280;48624;49.812;8.562;2022-11-14T05:32:07;100454.91;;;5.01;100.00
62333;BME280;48624;49.812;8.562;2022-11-14T05:34:32;100457.56;;;5.20;100.00
62333;BME280;48624;49.812;8.562;2022-11-14T05:36:58;100444.41;;;5.01;100.00
62333;BME280;48624;49.812;8.562;2022-11-14T05:39:23;100442.38;;;5.08;100.00
62333;BME280;48624;49.812;8.562;2022-11-14T05:41:48;100442.94;;;5.14;100.00
62333;BME280;48624;49.812;8.562;2022-11-14T05:44:15;100444.19;;;5.06;100.00
62333;BME280;48624;49.812;8.562;2022-11-14T05:46:40;100439.44;;;4.95;100.00
62333;BME280;48624;49.812;8.562;2022-11-14T05:49:05;100434.50;;;5.08;100.00
62333;BME280;48624;49.812;8.562;2022-11-14T05:51:30;100429.50;;;5.21;100.00
62333;BME280;48624;49.812;8.562;2022-11-14T05:53:56;100426.81;;;5.22;100.00
62333;BME280;48624;49.812;8.562;2022-11-14T05:56:21;100415.31;;;5.25;100.00
62333;BME280;48624;49.812;8.562;2022-11-14T05:58:48;100424.13;;;5.24;100.00
62333;BME280;48624;49.812;8.562;2022-11-14T06:01:16;100433.34;;;5.33;100.00
62333;BME280;48624;49.812;8.562;2022-11-14T06:03:44;100439.03;;;5.23;100.00
62333;BME280;48624;49.812;8.562;2022-11-14T06:06:12;100454.09;;;5.39;100.00
62333;BME280;48624;49.812;8.562;2022-11-14T06:08:38;100442.50;;;5.43;100.00
62333;BME280;48624;49.812;8.562;2022-11-14T06:11:05;100436.41;;;5.43;100.00
62333;BME280;48624;49.812;8.562;2022-11-14T06:13:31;100450.75;;;5.35;100.00
62333;BME280;48624;49.812;8.562;2022-11-14T06:16:00;100439.81;;;5.45;100.00
62333;BME280;48624;49.812;8.562;2022-11-14T06:18:29;100444.31;;;5.43;100.00
62333;BME280;48624;49.812;8.562;2022-11-14T06:21:01;100450.59;;;5.38;100.00
62333;BME280;48624;49.812;8.562;2022-11-14T06:23:28;100440.81;;;5.42;100.00
62333;BME280;48624;49.812;8.562;2022-11-14T06:28:45;100435.63;;;5.21;100.00
62333;BME280;48624;49.812;8.562;2022-11-14T06:31:11;100433.00;;;5.21;100.00
62333;BME280;48624;49.812;8.562;2022-11-14T06:33:37;100423.38;;;5.01;100.00
62333;BME280;48624;49.812;8.562;2022-11-14T06:36:04;100436.41;;;5.04;100.00
62333;BME280;48624;49.812;8.562;2022-11-14T06:38:31;100431.25;;;5.01;100.00
62333;BME280;48624;49.812;8.562;2022-11-14T06:43:34;100423.94;;;4.89;100.00
62333;BME280;48624;49.812;8.562;2022-11-14T06:46:00;100423.06;;;4.69;100.00
62333;BME280;48624;49.812;8.562;2022-11-14T06:48:25;100436.16;;;4.90;100.00
62333;BME280;48624;49.812;8.562;2022-11-14T06:50:52;100434.31;;;4.92;100.00
62333;BME280;48624;49.812;8.562;2022-11-14T06:53:18;100429.72;;;4.97;100.00
62333;BME280;48624;49.812;8.562;2022-11-14T06:56:02;100431.34;;;5.19;100.00
62333;BME280;48624;49.812;8.562;2022-11-14T06:58:30;100433.72;;;5.25;100.00
62333;BME280;48624;49.812;8.562;2022-11-14T07:00:56;100450.97;;;5.31;100.00
62333;BME280;48624;49.812;8.562;2022-11-14T07:03:21;100438.94;;;5.44;100.00
62333;BME280;48624;49.812;8.562;2022-11-14T07:05:47;100431.16;;;5.43;100.00
62333;BME280;48624;49.812;8.562;2022-11-14T07:08:13;100435.47;;;5.24;100.00
62333;BME280;48624;49.812;8.562;2022-11-14T07:10:39;100438.97;;;5.25;100.00
62333;BME280;48624;49.812;8.562;2022-11-14T07:13:04;100431.03;;;5.26;100.00
62333;BME280;48624;49.812;8.562;2022-11-14T07:15:31;100425.69;;;5.28;100.00
62333;BME280;48624;49.812;8.562;2022-11-14T07:17:57;100423.22;;;5.25;100.00
62333;BME280;48624;49.812;8.562;2022-11-14T07:20:23;100417.53;;;5.34;100.00
62333;BME280;48624;49.812;8.562;2022-11-14T07:22:48;100434.63;;;5.43;100.00
62333;BME280;48624;49.812;8.562;2022-11-14T07:25:14;100450.66;;;5.56;100.00
62333;BME280;48624;49.812;8.562;2022-11-14T07:27:39;100440.81;;;5.42;100.00
62333;BME280;48624;49.812;8.562;2022-11-14T07:30:05;100456.84;;;5.74;100.00
62333;BME280;48624;49.812;8.562;2022-11-14T07:32:30;100451.66;;;5.53;100.00
62333;BME280;48624;49.812;8.562;2022-11-14T07:34:56;100446.94;;;5.43;100.00
62333;BME280;48624;49.812;8.562;2022-11-14T07:37:21;100445.91;;;5.64;100.00
62333;BME280;48624;49.812;8.562;2022-11-14T07:39:46;100444.50;;;5.57;100.00
62333;BME280;48624;49.812;8.562;2022-11-14T07:42:12;100434.66;;;5.80;100.00
62333;BME280;48624;49.812;8.562;2022-11-14T07:44:37;100440.25;;;5.91;100.00
62333;BME280;48624;49.812;8.562;2022-11-14T07:47:02;100435.28;;;6.04;100.00
62333;BME280;48624;49.812;8.562;2022-11-14T07:49:28;100446.00;;;6.00;100.00
62333;BME280;48624;49.812;8.562;2022-11-14T07:51:53;100437.25;;;5.99;100.00
62333;BME280;48624;49.812;8.562;2022-11-14T07:54:19;100436.59;;;6.13;100.00
62333;BME280;48624;49.812;8.562;2022-11-14T07:56:44;100442.34;;;6.21;100.00
62333;BME280;48624;49.812;8.562;2022-11-14T07:59:09;100435.97;;;6.25;100.00
62333;BME280;48624;49.812;8.562;2022-11-14T08:01:35;100431.97;;;6.36;100.00
62333;BME280;48624;49.812;8.562;2022-11-14T08:04:00;100438.25;;;6.51;100.00
62333;BME280;48624;49.812;8.562;2022-11-14T08:06:25;100449.53;;;6.53;100.00
62333;BME280;48624;49.812;8.562;2022-11-14T08:08:51;100439.94;;;6.52;100.00
62333;BME280;48624;49.812;8.562;2022-11-14T08:11:16;100445.09;;;6.71;100.00
62333;BME280;48624;49.812;8.562;2022-11-14T08:14:02;100442.75;;;6.83;100.00
62333;BME280;48624;49.812;8.562;2022-11-14T08:16:27;100440.03;;;6.84;100.00
62333;BME280;48624;49.812;8.562;2022-11-14T08:18:52;100428.69;;;6.66;100.00
62333;BME280;48624;49.812;8.562;2022-11-14T08:21:18;100431.00;;;6.72;100.00
62333;BME280;48624;49.812;8.562;2022-11-14T08:23:43;100421.56;;;6.68;100.00
62333;BME280;48624;49.812;8.562;2022-11-14T08:26:09;100423.34;;;7.01;100.00
62333;BME280;48624;49.812;8.562;2022-11-14T08:28:34;100435.28;;;6.91;100.00
62333;BME280;48624;49.812;8.562;2022-11-14T08:31:00;100439.78;;;7.22;100.00
62333;BME280;48624;49.812;8.562;2022-11-14T08:33:26;100446.59;;;7.27;100.00
62333;BME280;48624;49.812;8.562;2022-11-14T08:35:51;100447.78;;;7.21;100.00
62333;BME280;48624;49.812;8.562;2022-11-14T08:38:17;100456.53;;;7.38;100.00
62333;BME280;48624;49.812;8.562;2022-11-14T08:40:42;100455.03;;;7.49;99.65
62333;BME280;48624;49.812;8.562;2022-11-14T08:43:07;100450.88;;;7.61;98.32
62333;BME280;48624;49.812;8.562;2022-11-14T08:45:35;100446.44;;;7.62;98.97
62333;BME280;48624;49.812;8.562;2022-11-14T08:48:00;100443.81;;;7.78;97.07
62333;BME280;48624;49.812;8.562;2022-11-14T08:50:25;100451.72;;;7.78;97.18
62333;BME280;48624;49.812;8.562;2022-11-14T08:52:51;100451.53;;;7.81;96.90
62333;BME280;48624;49.812;8.562;2022-11-14T08:55:17;100454.38;;;8.09;95.87
62333;BME280;48624;49.812;8.562;2022-11-14T08:57:43;100453.72;;;7.89;96.48
62333;BME280;48624;49.812;8.562;2022-11-14T09:00:09;100458.00;;;7.91;96.51
62333;BME280;48624;49.812;8.562;2022-11-14T09:02:34;100438.31;;;7.97;96.16
62333;BME280;48624;49.812;8.562;2022-11-14T09:05:00;100444.47;;;7.98;95.90
62333;BME280;48624;49.812;8.562;2022-11-14T09:07:25;100444.44;;;8.14;94.94
62333;BME280;48624;49.812;8.562;2022-11-14T09:09:50;100433.88;;;8.14;94.66
62333;BME280;48624;49.812;8.562;2022-11-14T09:12:16;100434.50;;;7.87;93.53
62333;BME280;48624;49.812;8.562;2022-11-14T09:14:42;100427.19;;;7.92;94.42
62333;BME280;48624;49.812;8.562;2022-11-14T09:17:07;100425.34;;;8.09;94.05
62333;BME280;48624;49.812;8.562;2022-11-14T09:19:32;100428.47;;;8.15;94.03
62333;BME280;48624;49.812;8.562;2022-11-14T09:21:58;100419.88;;;8.28;94.44
62333;BME280;48624;49.812;8.562;2022-11-14T09:24:23;100427.13;;;8.24;95.34
62333;BME280;48624;49.812;8.562;2022-11-14T09:26:50;100425.03;;;8.60;94.46
62333;BME280;48624;49.812;8.562;2022-11-14T09:29:15;100418.16;;;8.57;94.08
62333;BME280;48624;49.812;8.562;2022-11-14T09:31:43;100416.97;;;8.63;94.27
62333;BME280;48624;49.812;8.562;2022-11-14T09:34:08;100425.44;;;8.97;92.38
62333;BME280;48624;49.812;8.562;2022-11-14T09:36:34;100430.19;;;8.92;91.96
62333;BME280;48624;49.812;8.562;2022-11-14T09:38:59;100443.75;;;9.00;90.67
62333;BME280;48624;49.812;8.562;2022-11-14T09:41:32;100443.09;;;8.97;90.39
62333;BME280;48624;49.812;8.562;2022-11-14T09:47:07;100445.63;;;8.98;89.66
62333;BME280;48624;49.812;8.562;2022-11-14T09:49:38;100437.72;;;9.13;89.47
62333;BME280;48624;49.812;8.562;2022-11-14T09:55:16;100433.56;;;9.09;89.13
62333;BME280;48624;49.812;8.562;2022-11-14T09:57:42;100433.19;;;9.15;88.31
62333;BME280;48624;49.812;8.562;2022-11-14T10:00:41;100428.56;;;9.04;88.38
62333;BME280;48624;49.812;8.562;2022-11-14T10:03:17;100418.47;;;8.96;88.33
62333;BME280;48624;49.812;8.562;2022-11-14T10:08:50;100409.22;;;8.89;89.68
62333;BME280;48624;49.812;8.562;2022-11-14T10:11:37;100417.53;;;8.83;90.49
62333;BME280;48624;49.812;8.562;2022-11-14T10:14:22;100412.34;;;8.81;90.49
62333;BME280;48624;49.812;8.562;2022-11-14T10:22:07;100391.47;;;8.91;90.46
62333;BME280;48624;49.812;8.562;2022-11-14T10:27:30;100385.06;;;8.95;90.18
62333;BME280;48624;49.812;8.562;2022-11-14T10:35:17;100388.53;;;9.25;89.63
62333;BME280;48624;49.812;8.562;2022-11-14T10:37:57;100388.56;;;9.38;89.38
62333;BME280;48624;49.812;8.562;2022-11-14T10:40:37;100382.03;;;9.43;88.84
62333;BME280;48624;49.812;8.562;2022-11-14T10:43:39;100376.38;;;9.50;87.90
62333;BME280;48624;49.812;8.562;2022-11-14T10:48:42;100371.13;;;9.63;87.42
62333;BME280;48624;49.812;8.562;2022-11-14T10:54:09;100370.97;;;9.79;85.04
62333;BME280;48624;49.812;8.562;2022-11-14T10:56:46;100355.91;;;9.66;86.94
62333;BME280;48624;49.812;8.562;2022-11-14T10:59:12;100350.84;;;9.76;87.39
62333;BME280;48624;49.812;8.562;2022-11-14T11:01:40;100355.38;;;10.02;86.41
62333;BME280;48624;49.812;8.562;2022-11-14T11:04:22;100352.78;;;9.87;86.25
62333;BME280;48624;49.812;8.562;2022-11-14T11:06:50;100346.47;;;10.28;84.92
62333;BME280;48624;49.812;8.562;2022-11-14T11:09:17;100338.53;;;10.03;85.45
62333;BME280;48624;49.812;8.562;2022-11-14T11:12:03;100342.56;;;10.08;85.26
62333;BME280;48624;49.812;8.562;2022-11-14T11:14:29;100347.03;;;10.34;84.92
62333;BME280;48624;49.812;8.562;2022-11-14T11:17:15;100330.16;;;10.09;83.87
62333;BME280;48624;49.812;8.562;2022-11-14T11:19:41;100330.09;;;10.36;85.42
62333;BME280;48624;49.812;8.562;2022-11-14T11:22:42;100323.19;;;10.34;83.55
62333;BME280;48624;49.812;8.562;2022-11-14T11:25:27;100322.56;;;10.30;84.02
62333;BME280;48624;49.812;8.562;2022-11-14T11:28:04;100313.50;;;10.85;82.96
62333;BME280;48624;49.812;8.562;2022-11-14T11:30:30;100316.06;;;11.23;81.27
62333;BME280;48624;49.812;8.562;2022-11-14T11:33:14;100310.81;;;11.10;80.51
62333;BME280;48624;49.812;8.562;2022-11-14T11:35:40;100319.00;;;11.32;80.34
62333;BME280;48624;49.812;8.562;2022-11-14T11:38:08;100301.50;;;11.29;80.45
62333;BME280;48624;49.812;8.562;2022-11-14T11:40:36;100296.44;;;11.26;81.32
62333;BME280;48624;49.812;8.562;2022-11-14T11:43:13;100299.16;;;11.73;80.27
62333;BME280;48624;49.812;8.562;2022-11-14T11:45:45;100294.38;;;11.90;79.41
62333;BME280;48624;49.812;8.562;2022-11-14T11:48:20;100299.09;;;11.98;78.57
62333;BME280;48624;49.812;8.562;2022-11-14T11:50:46;100297.41;;;11.97;78.40
62333;BME280;48624;49.812;8.562;2022-11-14T11:53:31;100300.16;;;11.84;76.40
62333;BME280;48624;49.812;8.562;2022-11-14T11:56:03;100295.91;;;12.05;76.89
62333;BME280;48624;49.812;8.562;2022-11-14T11:58:34;100293.75;;;11.75;77.15
62333;BME280;48624;49.812;8.562;2022-11-14T12:01:02;100290.50;;;11.94;77.42
62333;BME280;48624;49.812;8.562;2022-11-14T12:03:27;100288.34;;;11.88;76.58
62333;BME280;48624;49.812;8.562;2022-11-14T12:11:26;100288.41;;;11.63;77.66
62333;BME280;48624;49.812;8.562;2022-11-14T12:16:59;100286.47;;;11.65;77.96
62333;BME280;48624;49.812;8.562;2022-11-14T12:19:43;100287.59;;;11.50;78.70
62333;BME280;48624;49.812;8.562;2022-11-14T12:30:58;100290.03;;;11.04;79.30
62333;BME280;48624;49.812;8.562;2022-11-14T12:33:43;100287.28;;;11.06;79.03
62333;BME280;48624;49.812;8.562;2022-11-14T12:36:11;100288.91;;;11.20;79.27
62333;BME280;48624;49.812;8.562;2022-11-14T12:38:46;100285.34;;;11.32;78.94
62333;BME280;48624;49.812;8.562;2022-11-14T12:41:24;100287.97;;;11.21;79.83
62333;BME280;48624;49.812;8.562;2022-11-14T12:43:50;100290.31;;;11.37;79.41
62333;BME280;48624;49.812;8.562;2022-11-14T12:46:16;100283.13;;;11.39;79.85
62333;BME280;48624;49.812;8.562;2022-11-14T12:48:42;100288.47;;;11.50;79.54
62333;BME280;48624;49.812;8.562;2022-11-14T12:53:49;100288.25;;;11.29;81.03
62333;BME280;48624;49.812;8.562;2022-11-14T13:10:29;100266.06;;;11.30;82.79
62333;BME280;48624;49.812;8.562;2022-11-14T13:13:08;100265.34;;;11.28;82.59
62333;BME280;48624;49.812;8.562;2022-11-14T13:15:54;100249.81;;;11.35;82.56
62333;BME280;48624;49.812;8.562;2022-11-14T13:22:17;100252.09;;;11.28;82.30
62333;BME280;48624;49.812;8.562;2022-11-14T13:27:30;100251.09;;;11.54;82.26
62333;BME280;48624;49.812;8.562;2022-11-14T13:29:56;100250.63;;;11.60;82.10
62333;BME280;48624;49.812;8.562;2022-11-14T13:35:20;100240.56;;;11.52;82.65
62333;BME280;48624;49.812;8.562;2022-11-14T13:38:12;100238.03;;;11.39;82.48
62333;BME280;48624;49.812;8.562;2022-11-14T13:40:43;100248.06;;;11.47;82.72
62333;BME280;48624;49.812;8.562;2022-11-14T13:51:31;100233.50;;;11.64;81.75
62333;BME280;48624;49.812;8.562;2022-11-14T13:53:57;100244.72;;;11.68;82.32
62333;BME280;48624;49.812;8.562;2022-11-14T13:56:34;100232.16;;;11.58;83.42
62333;BME280;48624;49.812;8.562;2022-11-14T13:59:41;100241.25;;;11.67;83.38
62333;BME280;48624;49.812;8.562;2022-11-14T14:02:24;100231.53;;;12.02;81.57
62333;BME280;48624;49.812;8.562;2022-11-14T14:05:25;100235.28;;;11.99;81.80
62333;BME280;48624;49.812;8.562;2022-11-14T14:13:36;100232.34;;;11.91;81.10
62333;BME280;48624;49.812;8.562;2022-11-14T14:16:21;100226.09;;;11.92;80.95
62333;BME280;48624;49.812;8.562;2022-11-14T14:19:00;100216.13;;;11.48;82.62
62333;BME280;48624;49.812;8.562;2022-11-14T14:21:53;100224.19;;;11.47;83.54
62333;BME280;48624;49.812;8.562;2022-11-14T14:24:34;100224.19;;;11.47;83.13
62333;BME280;48624;49.812;8.562;2022-11-14T14:30:10;100220.91;;;11.43;83.70
62333;BME280;48624;49.812;8.562;2022-11-14T14:32:37;100225.25;;;11.44;83.31
62333;BME280;48624;49.812;8.562;2022-11-14T14:35:22;100236.34;;;11.14;84.26
62333;BME280;48624;49.812;8.562;2022-11-14T14:37:50;100226.09;;;11.45;83.06
62333;BME280;48624;49.812;8.562;2022-11-14T14:40:36;100232.84;;;11.13;83.99